createdAt,value
2019-03-30T00:00:46.719Z,11.77
2019-03-30T00:03:16.792Z,13.27
2019-03-30T00:05:47.169Z,12.93
2019-03-30T00:08:17.446Z,13.23
2019-03-30T00:10:47.545Z,14.20
2019-03-30T00:13:17.967Z,13.07
2019-03-30T00:15:48.051Z,12.53
2019-03-30T00:18:18.189Z,13.60
2019-03-30T00:20:48.363Z,13.63
2019-03-30T00:23:18.754Z,13.43
2019-03-30T00:25:48.830Z,13.40
2019-03-30T00:28:19.003Z,12.43
2019-03-30T00:30:49.049Z,13.57
2019-03-30T00:33:19.229Z,12.90
2019-03-30T00:35:49.440Z,13.57
2019-03-30T00:38:19.614Z,13.73
2019-03-30T00:40:49.813Z,14.57
2019-03-30T00:43:20.105Z,13.77
2019-03-30T00:45:50.192Z,13.87
2019-03-30T00:48:20.399Z,14.33
2019-03-30T00:50:50.666Z,13.60
2019-03-30T00:53:20.992Z,15.07
2019-03-30T00:55:51.109Z,14.00
2019-03-30T00:58:21.694Z,15.93
2019-03-30T01:00:51.738Z,14.63
2019-03-30T01:03:21.794Z,14.57
2019-03-30T01:05:51.983Z,14.70
2019-03-30T01:08:22.074Z,15.57
2019-03-30T01:10:52.446Z,14.37
2019-03-30T01:13:22.603Z,14.20
2019-03-30T01:15:52.754Z,14.30
2019-03-30T01:18:22.822Z,14.37
2019-03-30T01:20:52.983Z,15.00
2019-03-30T01:23:23.173Z,14.13
2019-03-30T01:25:53.693Z,13.87
2019-03-30T01:28:23.969Z,14.47
2019-03-30T01:30:54.039Z,14.27
2019-03-30T01:33:24.149Z,15.13
2019-03-30T01:35:54.216Z,14.37
2019-03-30T01:38:24.372Z,13.23
2019-03-30T01:40:54.561Z,13.83
2019-03-30T01:43:24.921Z,14.00
2019-03-30T01:45:55.081Z,14.07
2019-03-30T01:48:25.305Z,13.23
2019-03-30T01:50:58.093Z,13.80
2019-03-30T01:53:28.159Z,14.40
2019-03-30T01:55:58.665Z,14.83
2019-03-30T01:58:28.823Z,13.67
2019-03-30T02:00:58.989Z,13.77
2019-03-30T02:03:29.473Z,15.00
2019-03-30T02:05:59.718Z,14.83
2019-03-30T02:08:29.763Z,13.63
2019-03-30T02:10:59.917Z,14.60
2019-03-30T02:13:30.241Z,14.63
2019-03-30T02:16:00.489Z,14.53
2019-03-30T02:18:30.545Z,13.90
2019-03-30T02:21:00.750Z,14.67
2019-03-30T02:23:30.956Z,14.13
2019-03-30T02:26:01.166Z,14.77
2019-03-30T02:28:31.360Z,15.13
2019-03-30T02:31:01.485Z,14.67
2019-03-30T02:33:31.615Z,13.97
2019-03-30T02:36:02.032Z,14.27
2019-03-30T02:38:32.219Z,14.03
2019-03-30T02:41:02.303Z,15.33
2019-03-30T02:43:32.408Z,13.27
2019-03-30T02:46:02.743Z,13.93
2019-03-30T02:48:32.797Z,13.73
2019-03-30T02:51:02.843Z,14.80
2019-03-30T02:53:32.989Z,13.83
2019-03-30T02:56:02.996Z,14.43
2019-03-30T02:58:33.059Z,13.57
2019-03-30T03:01:03.244Z,13.77
2019-03-30T03:03:33.416Z,14.57
2019-03-30T03:06:03.629Z,14.33
2019-03-30T03:08:33.871Z,14.93
2019-03-30T03:11:04.049Z,13.70
2019-03-30T03:13:34.201Z,13.07
2019-03-30T03:16:04.407Z,14.80
2019-03-30T03:18:34.801Z,14.83
2019-03-30T03:21:07.948Z,14.23
2019-03-30T03:23:37.157Z,13.87
2019-03-30T03:26:07.531Z,14.23
2019-03-30T03:28:37.565Z,15.00
2019-03-30T03:31:07.772Z,13.93
2019-03-30T03:33:37.992Z,14.00
2019-03-30T03:36:08.624Z,13.87
2019-03-30T03:38:38.826Z,14.57
2019-03-30T03:41:08.871Z,14.03
2019-03-30T03:43:38.882Z,14.33
2019-03-30T03:46:08.951Z,14.57
2019-03-30T03:48:38.981Z,13.77
2019-03-30T03:51:25.012Z,13.53
2019-03-30T03:53:41.157Z,13.60
2019-03-30T03:56:11.721Z,14.37
2019-03-30T03:58:41.786Z,14.43
2019-03-30T04:01:12.927Z,13.67
2019-03-30T04:03:43.727Z,13.43
2019-03-30T04:06:15.123Z,14.33
2019-03-30T04:08:48.134Z,13.70
2019-03-30T04:11:20.386Z,14.90
2019-03-30T04:13:52.549Z,13.30
2019-03-30T04:16:22.722Z,13.43
2019-03-30T04:18:52.771Z,12.53
2019-03-30T04:21:22.858Z,13.87
2019-03-30T04:23:54.496Z,14.20
2019-03-30T04:26:25.239Z,16.20
2019-03-30T04:28:55.377Z,16.70
2019-03-30T04:31:25.542Z,15.67
2019-03-30T04:33:55.624Z,13.90
2019-03-30T04:36:25.985Z,13.80
2019-03-30T04:38:56.123Z,13.83
2019-03-30T04:41:26.300Z,13.00
2019-03-30T04:43:56.670Z,14.30
2019-03-30T04:46:26.850Z,13.73
2019-03-30T04:48:57.090Z,12.37
2019-03-30T04:51:27.258Z,12.93
2019-03-30T04:53:57.864Z,12.90
2019-03-30T04:56:27.924Z,12.80
2019-03-30T04:58:57.948Z,13.57
2019-03-30T05:01:28.106Z,13.60
2019-03-30T05:03:58.336Z,14.37
2019-03-30T05:06:30.503Z,13.00
2019-03-30T05:09:00.595Z,13.10
2019-03-30T05:11:30.694Z,11.90
2019-03-30T05:14:00.853Z,12.57
2019-03-30T05:16:31.255Z,12.70
2019-03-30T05:19:01.308Z,12.80
2019-03-30T05:21:31.452Z,13.10
2019-03-30T05:24:01.588Z,13.00
2019-03-30T05:26:31.780Z,14.17
2019-03-30T05:29:02.366Z,14.77
2019-03-30T05:31:32.737Z,14.43
2019-03-30T05:34:02.866Z,14.60
2019-03-30T05:36:32.936Z,13.67
2019-03-30T05:39:04.302Z,13.10
2019-03-30T05:41:34.376Z,13.83
2019-03-30T05:44:04.668Z,12.87
2019-03-30T05:46:34.796Z,13.27
2019-03-30T05:49:05.022Z,13.57
2019-03-30T05:51:35.174Z,13.20
2019-03-30T05:54:05.380Z,12.90
2019-03-30T05:56:35.609Z,12.80
2019-03-30T05:59:05.631Z,12.70
2019-03-30T06:01:35.824Z,11.90
2019-03-30T06:04:05.936Z,12.50
2019-03-30T06:06:36.124Z,12.90
2019-03-30T06:09:07.595Z,13.10
2019-03-30T06:11:37.630Z,12.80
2019-03-30T06:14:07.650Z,11.97
2019-03-30T06:16:37.739Z,10.93
2019-03-30T06:19:07.935Z,11.13
2019-03-30T06:21:37.955Z,10.73
2019-03-30T06:24:08.044Z,10.87
2019-03-30T06:26:38.103Z,12.45
2019-03-30T06:29:08.149Z,11.33
2019-03-30T06:31:38.376Z,10.83
2019-03-30T06:34:08.612Z,10.73
2019-03-30T06:36:38.999Z,10.83
2019-03-30T06:39:09.049Z,10.85
2019-03-30T06:41:39.168Z,11.13
2019-03-30T06:44:09.289Z,9.63
2019-03-30T06:46:39.840Z,10.80
2019-03-30T06:49:09.988Z,10.23
2019-03-30T06:51:40.170Z,14.80
2019-03-30T06:54:10.336Z,13.30
2019-03-30T06:56:40.871Z,10.93
2019-03-30T06:59:11.431Z,10.87
2019-03-30T07:01:42.429Z,9.90
2019-03-30T07:04:12.655Z,10.27
2019-03-30T07:06:44.859Z,10.15
2019-03-30T07:09:15.902Z,10.47
2019-03-30T07:11:47.394Z,11.08
2019-03-30T07:14:17.589Z,10.40
2019-03-30T07:16:49.576Z,9.67
2019-03-30T07:19:21.083Z,10.32
2019-03-30T07:21:51.175Z,9.95
2019-03-30T07:24:21.227Z,9.50
2019-03-30T07:26:51.309Z,9.40
2019-03-30T07:29:21.387Z,10.60
2019-03-30T07:31:51.474Z,9.77
2019-03-30T07:34:21.655Z,10.48
2019-03-30T07:36:51.872Z,10.93
2019-03-30T07:39:22.057Z,10.00
2019-03-30T07:41:52.310Z,10.00
2019-03-30T07:44:22.455Z,9.58
2019-03-30T07:46:52.711Z,8.93
2019-03-30T07:49:22.857Z,9.30
2019-03-30T07:51:53.111Z,8.97
2019-03-30T07:54:23.340Z,10.08
2019-03-30T07:57:04.271Z,9.78
2019-03-30T07:59:25.304Z,10.00
2019-03-30T08:01:55.374Z,9.63
2019-03-30T08:04:28.539Z,10.10
2019-03-30T08:06:57.276Z,9.70
2019-03-30T08:09:27.450Z,9.37
2019-03-30T08:11:57.570Z,9.00
2019-03-30T08:14:27.956Z,10.18
2019-03-30T08:16:58.071Z,9.43
2019-03-30T08:19:28.203Z,9.48
2019-03-30T08:21:58.588Z,10.72
2019-03-30T08:24:28.680Z,10.53
2019-03-30T08:26:58.894Z,9.13
2019-03-30T08:29:29.048Z,9.98
2019-03-30T08:31:59.458Z,10.08
2019-03-30T08:34:29.610Z,10.32
2019-03-30T08:36:59.719Z,10.13
2019-03-30T08:39:29.869Z,10.30
2019-03-30T08:41:59.996Z,10.70
2019-03-30T08:44:30.130Z,11.18
2019-03-30T08:47:00.273Z,10.32
2019-03-30T08:49:30.399Z,10.40
2019-03-30T08:52:00.638Z,10.88
2019-03-30T08:54:30.920Z,13.05
2019-03-30T08:57:01.043Z,13.62
2019-03-30T08:59:31.338Z,14.33
2019-03-30T09:02:01.561Z,16.32
2019-03-30T09:04:31.713Z,15.28
2019-03-30T09:07:01.987Z,13.83
2019-03-30T09:09:32.241Z,14.50
2019-03-30T09:12:02.369Z,14.93
2019-03-30T09:14:32.574Z,15.78
2019-03-30T09:17:02.844Z,15.53
2019-03-30T09:19:32.997Z,14.43
2019-03-30T09:22:03.204Z,15.68
2019-03-30T09:24:33.499Z,16.62
2019-03-30T09:27:03.685Z,16.82
2019-03-30T09:29:33.790Z,16.73
2019-03-30T09:32:14.190Z,16.90
2019-03-30T09:34:35.706Z,16.57
2019-03-30T09:37:05.866Z,15.18
2019-03-30T09:39:36.074Z,14.93
2019-03-30T09:42:06.276Z,15.45
2019-03-30T09:44:36.511Z,15.88
2019-03-30T09:47:06.705Z,17.57
2019-03-30T09:49:36.925Z,15.90
2019-03-30T09:52:07.083Z,14.90
2019-03-30T09:54:37.209Z,17.42
2019-03-30T09:57:07.263Z,17.07
2019-03-30T09:59:37.374Z,16.32
2019-03-30T10:02:07.703Z,17.52
2019-03-30T10:04:39.326Z,16.82
2019-03-30T10:07:09.495Z,17.00
2019-03-30T10:09:39.699Z,17.57
2019-03-30T10:12:09.893Z,18.20
2019-03-30T10:14:40.118Z,20.50
2019-03-30T10:17:10.194Z,20.55
2019-03-30T10:19:40.305Z,22.20
2019-03-30T10:22:10.372Z,20.57
2019-03-30T10:24:40.415Z,17.57
2019-03-30T10:27:10.531Z,20.37
2019-03-30T10:29:40.711Z,20.95
2019-03-30T10:32:11.021Z,20.27
2019-03-30T10:34:41.143Z,20.40
2019-03-30T10:37:11.468Z,22.98
2019-03-30T10:39:41.580Z,18.10
2019-03-30T10:42:11.756Z,17.75
2019-03-30T10:44:41.857Z,16.87
2019-03-30T10:47:11.945Z,19.65
2019-03-30T10:49:41.980Z,18.80
2019-03-30T10:52:12.102Z,17.05
2019-03-30T10:54:52.515Z,15.58
2019-03-30T10:57:13.887Z,15.43
2019-03-30T10:59:44.136Z,17.87
2019-03-30T11:02:14.280Z,16.67
2019-03-30T11:04:44.964Z,16.02
2019-03-30T11:07:15.732Z,17.07
2019-03-30T11:09:45.783Z,19.57
2019-03-30T11:12:16.238Z,19.10
2019-03-30T11:14:46.349Z,18.55
2019-03-30T11:17:19.243Z,17.73
2019-03-30T11:19:48.215Z,15.05
2019-03-30T11:22:18.407Z,15.38
2019-03-30T11:24:48.576Z,14.05
2019-03-30T11:27:18.741Z,13.48
2019-03-30T11:29:48.851Z,14.00
2019-03-30T11:32:18.899Z,12.98
2019-03-30T11:34:48.965Z,13.13
2019-03-30T11:37:19.019Z,12.73
2019-03-30T11:39:49.164Z,13.28
2019-03-30T11:42:19.362Z,13.18
2019-03-30T11:44:49.523Z,13.05
2019-03-30T11:47:20.127Z,13.13
2019-03-30T11:49:50.128Z,12.70
2019-03-30T11:52:20.183Z,13.55
2019-03-30T11:54:50.294Z,14.05
2019-03-30T11:57:20.298Z,13.22
2019-03-30T11:59:50.501Z,13.70
2019-03-30T12:02:27.823Z,13.03
2019-03-30T12:04:52.442Z,13.38
2019-03-30T12:07:22.454Z,14.55
2019-03-30T12:09:53.281Z,14.25
2019-03-30T12:12:25.088Z,15.10
2019-03-30T12:14:55.069Z,16.75
2019-03-30T12:17:25.133Z,15.50
2019-03-30T12:19:55.146Z,13.43
2019-03-30T12:22:25.219Z,13.98
2019-03-30T12:24:55.363Z,12.23
2019-03-30T12:27:25.550Z,12.40
2019-03-30T12:29:55.786Z,13.03
2019-03-30T12:32:26.137Z,13.25
2019-03-30T12:34:56.294Z,13.65
2019-03-30T12:37:26.429Z,13.55
2019-03-30T12:39:58.329Z,14.07
2019-03-30T12:42:28.561Z,14.70
2019-03-30T12:44:58.777Z,15.78
2019-03-30T12:47:28.980Z,14.70
2019-03-30T12:49:59.208Z,13.22
2019-03-30T12:52:29.365Z,13.60
2019-03-30T12:54:59.668Z,13.83
2019-03-30T12:57:29.901Z,14.23
2019-03-30T12:59:59.989Z,13.13
2019-03-30T13:02:30.222Z,13.68
2019-03-30T13:05:00.646Z,13.28
2019-03-30T13:07:30.726Z,13.95
2019-03-30T13:10:00.923Z,14.68
2019-03-30T13:12:31.324Z,13.38
2019-03-30T13:15:01.339Z,14.78
2019-03-30T13:17:31.499Z,16.87
2019-03-30T13:20:01.711Z,14.20
2019-03-30T13:22:31.902Z,16.02
2019-03-30T13:25:02.145Z,14.65
2019-03-30T13:27:32.306Z,14.35
2019-03-30T13:30:02.387Z,14.10
2019-03-30T13:32:32.555Z,13.18
2019-03-30T13:35:02.707Z,15.10
2019-03-30T13:37:32.918Z,14.20
2019-03-30T13:40:03.184Z,16.05
2019-03-30T13:42:33.269Z,13.68
2019-03-30T13:45:04.091Z,13.28
2019-03-30T13:47:34.190Z,14.20
2019-03-30T13:50:05.064Z,14.40
2019-03-30T13:52:35.126Z,14.73
2019-03-30T13:55:05.364Z,14.03
2019-03-30T13:57:35.426Z,14.30
2019-03-30T14:00:06.943Z,14.60
2019-03-30T14:02:37.100Z,15.05
2019-03-30T14:05:07.703Z,15.58
2019-03-30T14:07:37.821Z,13.72
2019-03-30T14:10:09.046Z,14.23
2019-03-30T14:12:39.148Z,14.50
2019-03-30T14:15:09.703Z,15.90
2019-03-30T14:17:40.186Z,15.85
2019-03-30T14:20:10.315Z,15.40
2019-03-30T14:22:40.539Z,15.28
2019-03-30T14:25:10.636Z,15.03
2019-03-30T14:27:40.810Z,15.83
2019-03-30T14:30:11.778Z,15.80
2019-03-30T14:32:41.816Z,14.60
2019-03-30T14:35:11.999Z,16.23
2019-03-30T14:37:42.064Z,16.50
2019-03-30T14:40:12.212Z,15.88
2019-03-30T14:42:42.321Z,17.82
2019-03-30T14:45:12.797Z,16.10
2019-03-30T14:47:42.897Z,16.70
2019-03-30T14:50:13.102Z,15.83
2019-03-30T14:52:43.694Z,15.03
2019-03-30T14:55:14.226Z,19.45
2019-03-30T14:57:44.269Z,18.75
2019-03-30T15:00:15.529Z,18.07
2019-03-30T15:02:45.585Z,17.48
2019-03-30T15:05:15.738Z,17.95
2019-03-30T15:07:46.062Z,17.62
2019-03-30T15:10:16.677Z,17.17
2019-03-30T15:12:46.771Z,18.80
2019-03-30T15:15:17.065Z,19.62
2019-03-30T15:17:47.125Z,19.40
2019-03-30T15:20:17.664Z,17.37
2019-03-30T15:22:47.769Z,16.52
2019-03-30T15:25:17.919Z,16.25
2019-03-30T15:27:48.212Z,15.63
2019-03-30T15:30:18.709Z,15.88
2019-03-30T15:32:48.867Z,16.15
2019-03-30T15:35:19.126Z,15.72
2019-03-30T15:37:49.275Z,15.35
2019-03-30T15:40:19.413Z,15.05
2019-03-30T15:42:49.615Z,15.30
2019-03-30T15:45:19.785Z,15.72
2019-03-30T15:47:50.088Z,15.30
2019-03-30T15:50:20.703Z,15.13
2019-03-30T15:52:50.755Z,15.93
2019-03-30T15:55:20.931Z,16.20
2019-03-30T15:57:51.024Z,15.93
2019-03-30T16:00:21.136Z,16.60
2019-03-30T16:02:51.292Z,17.00
2019-03-30T16:05:21.390Z,18.17
2019-03-30T16:07:51.854Z,19.05
2019-03-30T16:10:21.993Z,20.72
2019-03-30T16:12:52.178Z,20.32
2019-03-30T16:15:22.272Z,20.45
2019-03-30T16:17:52.477Z,21.85
2019-03-30T16:20:22.602Z,22.93
2019-03-30T16:22:52.747Z,21.35
2019-03-30T16:25:22.942Z,23.47
2019-03-30T16:27:53.088Z,25.17
2019-03-30T16:30:23.347Z,24.45
2019-03-30T16:32:53.603Z,24.12
2019-03-30T16:35:23.798Z,24.25
2019-03-30T16:37:54.000Z,24.15
2019-03-30T16:40:24.028Z,23.98
2019-03-30T16:42:54.076Z,26.00
2019-03-30T16:45:24.125Z,25.90
2019-03-30T16:47:54.285Z,26.52
2019-03-30T16:50:24.396Z,25.30
2019-03-30T16:52:54.588Z,24.55
2019-03-30T16:55:24.807Z,24.43
2019-03-30T16:57:54.969Z,24.37
2019-03-30T17:00:25.353Z,25.50
2019-03-30T17:02:55.432Z,23.92
2019-03-30T17:05:25.556Z,25.05
2019-03-30T17:07:55.613Z,23.25
2019-03-30T17:10:25.805Z,24.10
2019-03-30T17:12:55.906Z,22.75
2019-03-30T17:15:26.038Z,22.58
2019-03-30T17:17:56.474Z,29.77
2019-03-30T17:20:26.576Z,29.17
2019-03-30T17:22:58.881Z,27.07
2019-03-30T17:25:28.360Z,24.87
2019-03-30T17:27:59.068Z,26.50
2019-03-30T17:30:29.197Z,30.50
2019-03-30T17:32:59.306Z,30.50
2019-03-30T17:35:29.474Z,27.97
2019-03-30T17:38:00.082Z,24.60
2019-03-30T17:40:30.150Z,23.30
2019-03-30T17:43:00.179Z,23.17
2019-03-30T17:45:30.287Z,23.25
2019-03-30T17:48:00.547Z,23.80
2019-03-30T17:50:30.617Z,24.47
2019-03-30T17:53:00.642Z,25.07
2019-03-30T17:55:34.030Z,26.10
2019-03-30T17:58:12.812Z,24.20
2019-03-30T18:00:34.031Z,24.47
2019-03-30T18:03:04.563Z,25.60
2019-03-30T18:05:34.799Z,25.10
2019-03-30T18:08:05.038Z,28.23
2019-03-30T18:10:35.178Z,28.73
2019-03-30T18:13:05.290Z,30.67
2019-03-30T18:15:35.313Z,32.77
2019-03-30T18:18:05.350Z,29.23
2019-03-30T18:20:35.387Z,29.20
2019-03-30T18:23:05.566Z,29.67
2019-03-30T18:25:36.000Z,27.40
2019-03-30T18:28:06.021Z,28.07
2019-03-30T18:30:38.834Z,27.70
2019-03-30T18:33:09.158Z,26.97
2019-03-30T18:35:40.790Z,28.77
2019-03-30T18:38:12.841Z,31.30
2019-03-30T18:40:43.133Z,42.67
2019-03-30T18:43:13.645Z,73.40
2019-03-30T18:45:43.749Z,62.37
2019-03-30T18:48:17.690Z,45.50
2019-03-30T18:50:48.179Z,35.37
2019-03-30T18:53:18.737Z,35.37
2019-03-30T18:55:48.886Z,31.67
2019-03-30T18:58:19.623Z,33.93
2019-03-30T19:00:49.865Z,33.57
2019-03-30T19:03:20.467Z,32.93
2019-03-30T19:05:50.690Z,32.00
2019-03-30T19:08:20.937Z,31.80
2019-03-30T19:10:51.084Z,29.57
2019-03-30T19:13:21.201Z,32.00
2019-03-30T19:15:51.535Z,33.60
2019-03-30T19:18:21.608Z,33.37
2019-03-30T19:20:52.005Z,28.93
2019-03-30T19:23:22.570Z,32.77
2019-03-30T19:25:52.766Z,37.03
2019-03-30T19:28:22.805Z,34.27
2019-03-30T19:30:52.884Z,30.47
2019-03-30T19:33:23.038Z,35.50
2019-03-30T19:35:53.636Z,31.63
2019-03-30T19:38:23.798Z,30.73
2019-03-30T19:40:54.032Z,31.50
2019-03-30T19:43:24.197Z,35.33
2019-03-30T19:45:54.487Z,40.83
2019-03-30T19:48:24.706Z,35.80
2019-03-30T19:50:54.910Z,32.53
2019-03-30T19:53:25.100Z,31.00
2019-03-30T19:55:55.269Z,39.90
2019-03-30T19:58:25.492Z,36.80
2019-03-30T20:00:55.753Z,41.10
2019-03-30T20:03:25.973Z,44.63
2019-03-30T20:05:56.165Z,40.17
2019-03-30T20:08:26.359Z,40.47
2019-03-30T20:10:56.432Z,39.50
2019-03-30T20:13:26.480Z,38.80
2019-03-30T20:15:56.747Z,36.37
2019-03-30T20:18:27.826Z,37.37
2019-03-30T20:20:57.925Z,39.43
2019-03-30T20:23:27.974Z,42.27
2019-03-30T20:25:58.003Z,37.97
2019-03-30T20:28:28.103Z,35.13
2019-03-30T20:30:58.360Z,34.87
2019-03-30T20:33:28.483Z,36.90
2019-03-30T20:35:58.510Z,33.97
2019-03-30T20:38:28.724Z,38.23
2019-03-30T20:40:58.836Z,38.67
2019-03-30T20:43:29.122Z,41.33
2019-03-30T20:45:59.270Z,43.87
2019-03-30T20:48:29.430Z,43.13
2019-03-30T20:50:59.632Z,40.00
2019-03-30T20:53:29.849Z,38.83
2019-03-30T20:55:59.963Z,38.63
2019-03-30T20:58:30.053Z,41.37
2019-03-30T21:01:00.391Z,40.40
2019-03-30T21:03:30.534Z,38.53
2019-03-30T21:06:00.720Z,42.30
2019-03-30T21:08:30.930Z,44.23
2019-03-30T21:11:01.113Z,43.17
2019-03-30T21:13:31.276Z,44.67
2019-03-30T21:16:01.353Z,46.27
2019-03-30T21:18:31.419Z,45.03
2019-03-30T21:21:01.933Z,41.33
2019-03-30T21:23:31.945Z,53.23
2019-03-30T21:26:02.017Z,50.70
2019-03-30T21:28:32.125Z,52.87
2019-03-30T21:31:02.156Z,50.53
2019-03-30T21:33:32.331Z,51.77
2019-03-30T21:36:02.477Z,50.67
2019-03-30T21:38:32.649Z,49.83
2019-03-30T21:41:03.003Z,48.37
2019-03-30T21:43:33.117Z,46.13
2019-03-30T21:46:03.443Z,49.00
2019-03-30T21:48:33.548Z,53.07
2019-03-30T21:51:03.570Z,43.23
2019-03-30T21:53:33.592Z,50.73
2019-03-30T21:56:03.853Z,53.83
2019-03-30T21:58:34.011Z,53.20
2019-03-30T22:01:04.147Z,47.67
2019-03-30T22:03:34.441Z,50.50
2019-03-30T22:06:04.557Z,55.53
2019-03-30T22:08:34.709Z,53.23
2019-03-30T22:11:04.952Z,54.07
2019-03-30T22:13:36.055Z,57.70
2019-03-30T22:16:06.396Z,56.13
2019-03-30T22:18:36.455Z,54.37
2019-03-30T22:21:06.478Z,53.17
2019-03-30T22:23:36.626Z,52.30
2019-03-30T22:26:06.691Z,53.30
2019-03-30T22:28:37.004Z,50.03
2019-03-30T22:31:07.095Z,53.67
2019-03-30T22:33:39.151Z,50.03
2019-03-30T22:36:09.181Z,51.03
2019-03-30T22:38:39.258Z,54.10
2019-03-30T22:41:09.325Z,57.13
2019-03-30T22:43:39.556Z,52.27
2019-03-30T22:46:09.643Z,56.03
2019-03-30T22:48:39.676Z,53.33
2019-03-30T22:51:09.672Z,53.63
2019-03-30T22:53:39.769Z,56.83
2019-03-30T22:56:09.800Z,53.83
2019-03-30T22:58:39.964Z,57.73
2019-03-30T23:01:15.626Z,56.13
2019-03-30T23:03:46.003Z,62.13
2019-03-30T23:06:16.101Z,58.73
2019-03-30T23:08:46.328Z,54.60
2019-03-30T23:11:16.564Z,57.90
2019-03-30T23:13:46.890Z,55.73
2019-03-30T23:16:16.970Z,58.40
2019-03-30T23:18:47.103Z,70.33
2019-03-30T23:21:17.236Z,61.17
2019-03-30T23:23:47.286Z,61.53
2019-03-30T23:26:17.643Z,58.93
2019-03-30T23:28:47.740Z,61.40
2019-03-30T23:31:17.919Z,56.33
2019-03-30T23:33:48.278Z,55.27
2019-03-30T23:36:18.460Z,58.47
2019-03-30T23:38:48.589Z,55.50
2019-03-30T23:41:19.008Z,54.63
2019-03-30T23:43:49.082Z,53.03
2019-03-30T23:46:19.103Z,56.67
2019-03-30T23:48:49.130Z,59.20
2019-03-30T23:51:19.170Z,59.53
2019-03-30T23:53:49.236Z,53.83
2019-03-30T23:56:23.146Z,58.60
2019-03-30T23:58:53.503Z,61.17
